sensor_id;sensor_type;location;lat;lon;timestamp;P1;durP1;ratioP1;P2;durP2;ratioP2
52456;SDS011;38369;52.840;7.082;2024-02-28T00:00:29;291.10;;;57.97;;
52456;SDS011;38369;52.840;7.082;2024-02-28T00:02:55;271.80;;;60.08;;
52456;SDS011;38369;52.840;7.082;2024-02-28T00:05:21;393.15;;;65.78;;
52456;SDS011;38369;52.840;7.082;2024-02-28T00:07:47;407.77;;;69.93;;
52456;SDS011;38369;52.840;7.082;2024-02-28T00:10:14;425.77;;;69.00;;
52456;SDS011;38369;52.840;7.082;2024-02-28T00:12:40;216.70;;;46.83;;
52456;SDS011;38369;52.840;7.082;2024-02-28T00:15:06;275.23;;;46.33;;
52456;SDS011;38369;52.840;7.082;2024-02-28T00:17:38;447.40;;;60.30;;
52456;SDS011;38369;52.840;7.082;2024-02-28T00:20:05;328.40;;;51.20;;
52456;SDS011;38369;52.840;7.082;2024-02-28T00:22:31;270.55;;;49.28;;
52456;SDS011;38369;52.840;7.082;2024-02-28T00:24:58;328.00;;;52.03;;
52456;SDS011;38369;52.840;7.082;2024-02-28T00:27:26;271.33;;;48.13;;
52456;SDS011;38369;52.840;7.082;2024-02-28T00:29:52;346.63;;;50.35;;
52456;SDS011;38369;52.840;7.082;2024-02-28T00:32:18;253.65;;;48.13;;
52456;SDS011;38369;52.840;7.082;2024-02-28T00:34:44;352.90;;;58.67;;
52456;SDS011;38369;52.840;7.082;2024-02-28T00:37:10;640.63;;;86.90;;
52456;SDS011;38369;52.840;7.082;2024-02-28T00:39:36;361.17;;;58.15;;
52456;SDS011;38369;52.840;7.082;2024-02-28T00:42:02;305.08;;;54.85;;
52456;SDS011;38369;52.840;7.082;2024-02-28T00:44:28;246.95;;;49.15;;
52456;SDS011;38369;52.840;7.082;2024-02-28T00:46:54;341.30;;;54.08;;
52456;SDS011;38369;52.840;7.082;2024-02-28T00:49:21;334.30;;;52.63;;
52456;SDS011;38369;52.840;7.082;2024-02-28T00:51:47;343.13;;;56.63;;
52456;SDS011;38369;52.840;7.082;2024-02-28T00:54:13;226.80;;;49.03;;
52456;SDS011;38369;52.840;7.082;2024-02-28T00:56:39;290.75;;;53.28;;
52456;SDS011;38369;52.840;7.082;2024-02-28T00:59:05;452.50;;;64.70;;
52456;SDS011;38369;52.840;7.082;2024-02-28T01:01:35;378.27;;;58.40;;
52456;SDS011;38369;52.840;7.082;2024-02-28T01:04:01;341.85;;;54.45;;
52456;SDS011;38369;52.840;7.082;2024-02-28T01:06:27;274.80;;;49.63;;
52456;SDS011;38369;52.840;7.082;2024-02-28T01:08:53;333.05;;;56.15;;
52456;SDS011;38369;52.840;7.082;2024-02-28T01:11:19;230.68;;;45.10;;
52456;SDS011;38369;52.840;7.082;2024-02-28T01:13:45;290.73;;;51.88;;
52456;SDS011;38369;52.840;7.082;2024-02-28T01:16:12;379.90;;;57.78;;
52456;SDS011;38369;52.840;7.082;2024-02-28T01:18:38;357.80;;;53.80;;
52456;SDS011;38369;52.840;7.082;2024-02-28T01:21:04;469.88;;;71.65;;
52456;SDS011;38369;52.840;7.082;2024-02-28T01:23:31;373.73;;;55.25;;
52456;SDS011;38369;52.840;7.082;2024-02-28T01:25:57;429.13;;;58.53;;
52456;SDS011;38369;52.840;7.082;2024-02-28T01:28:23;250.93;;;46.42;;
52456;SDS011;38369;52.840;7.082;2024-02-28T01:30:49;246.95;;;46.72;;
52456;SDS011;38369;52.840;7.082;2024-02-28T01:33:15;145.52;;;38.58;;
52456;SDS011;38369;52.840;7.082;2024-02-28T01:35:41;277.13;;;46.03;;
52456;SDS011;38369;52.840;7.082;2024-02-28T01:38:07;342.48;;;50.88;;
52456;SDS011;38369;52.840;7.082;2024-02-28T01:40:33;439.38;;;65.57;;
52456;SDS011;38369;52.840;7.082;2024-02-28T01:43:18;413.50;;;61.13;;
52456;SDS011;38369;52.840;7.082;2024-02-28T01:45:44;265.00;;;45.63;;
52456;SDS011;38369;52.840;7.082;2024-02-28T01:48:10;235.57;;;45.45;;
52456;SDS011;38369;52.840;7.082;2024-02-28T01:50:37;246.88;;;46.80;;
52456;SDS011;38369;52.840;7.082;2024-02-28T01:53:05;364.77;;;56.05;;
52456;SDS011;38369;52.840;7.082;2024-02-28T01:55:34;288.67;;;51.60;;
52456;SDS011;38369;52.840;7.082;2024-02-28T01:58:00;341.95;;;56.38;;
52456;SDS011;38369;52.840;7.082;2024-02-28T02:00:26;364.88;;;58.80;;
52456;SDS011;38369;52.840;7.082;2024-02-28T02:02:53;424.42;;;65.93;;
52456;SDS011;38369;52.840;7.082;2024-02-28T02:05:19;291.98;;;53.13;;
52456;SDS011;38369;52.840;7.082;2024-02-28T02:07:47;267.42;;;52.40;;
52456;SDS011;38369;52.840;7.082;2024-02-28T02:10:14;212.35;;;47.38;;
52456;SDS011;38369;52.840;7.082;2024-02-28T02:12:40;453.55;;;67.95;;
52456;SDS011;38369;52.840;7.082;2024-02-28T02:15:06;472.35;;;73.60;;
52456;SDS011;38369;52.840;7.082;2024-02-28T02:17:32;257.27;;;51.55;;
52456;SDS011;38369;52.840;7.082;2024-02-28T02:19:58;525.05;;;82.78;;
52456;SDS011;38369;52.840;7.082;2024-02-28T02:22:25;306.05;;;60.08;;
52456;SDS011;38369;52.840;7.082;2024-02-28T02:24:53;213.63;;;46.58;;
52456;SDS011;38369;52.840;7.082;2024-02-28T02:27:19;209.02;;;45.88;;
52456;SDS011;38369;52.840;7.082;2024-02-28T02:29:45;184.77;;;44.92;;
52456;SDS011;38369;52.840;7.082;2024-02-28T02:32:11;342.70;;;59.72;;
52456;SDS011;38369;52.840;7.082;2024-02-28T02:34:37;194.23;;;45.67;;
52456;SDS011;38369;52.840;7.082;2024-02-28T02:37:03;218.80;;;45.35;;
52456;SDS011;38369;52.840;7.082;2024-02-28T02:39:30;315.05;;;58.15;;
52456;SDS011;38369;52.840;7.082;2024-02-28T02:41:56;183.73;;;43.05;;
52456;SDS011;38369;52.840;7.082;2024-02-28T02:44:22;187.10;;;47.50;;
52456;SDS011;38369;52.840;7.082;2024-02-28T02:46:48;209.55;;;45.55;;
52456;SDS011;38369;52.840;7.082;2024-02-28T02:49:14;351.17;;;58.20;;
52456;SDS011;38369;52.840;7.082;2024-02-28T02:51:40;204.52;;;45.47;;
52456;SDS011;38369;52.840;7.082;2024-02-28T02:54:08;187.35;;;41.35;;
52456;SDS011;38369;52.840;7.082;2024-02-28T02:56:34;202.60;;;44.63;;
52456;SDS011;38369;52.840;7.082;2024-02-28T02:59:00;171.10;;;45.08;;
52456;SDS011;38369;52.840;7.082;2024-02-28T03:01:26;201.95;;;43.95;;
52456;SDS011;38369;52.840;7.082;2024-02-28T03:03:52;214.40;;;50.47;;
52456;SDS011;38369;52.840;7.082;2024-02-28T03:06:18;169.75;;;43.80;;
52456;SDS011;38369;52.840;7.082;2024-02-28T03:08:44;203.88;;;47.33;;
52456;SDS011;38369;52.840;7.082;2024-02-28T03:11:10;179.75;;;44.78;;
52456;SDS011;38369;52.840;7.082;2024-02-28T03:13:36;222.85;;;46.70;;
52456;SDS011;38369;52.840;7.082;2024-02-28T03:16:03;211.82;;;46.22;;
52456;SDS011;38369;52.840;7.082;2024-02-28T03:18:29;163.52;;;42.33;;
52456;SDS011;38369;52.840;7.082;2024-02-28T03:20:55;239.18;;;49.15;;
52456;SDS011;38369;52.840;7.082;2024-02-28T03:23:21;192.45;;;46.35;;
52456;SDS011;38369;52.840;7.082;2024-02-28T03:25:48;247.77;;;52.60;;
52456;SDS011;38369;52.840;7.082;2024-02-28T03:28:14;125.50;;;40.30;;
52456;SDS011;38369;52.840;7.082;2024-02-28T03:30:40;124.90;;;38.60;;
52456;SDS011;38369;52.840;7.082;2024-02-28T03:33:06;219.23;;;48.00;;
52456;SDS011;38369;52.840;7.082;2024-02-28T03:35:33;171.98;;;45.78;;
52456;SDS011;38369;52.840;7.082;2024-02-28T03:37:59;147.48;;;42.83;;
52456;SDS011;38369;52.840;7.082;2024-02-28T03:40:25;189.40;;;49.83;;
52456;SDS011;38369;52.840;7.082;2024-02-28T03:42:51;133.55;;;40.53;;
52456;SDS011;38369;52.840;7.082;2024-02-28T03:45:17;264.98;;;55.50;;
52456;SDS011;38369;52.840;7.082;2024-02-28T03:47:44;137.82;;;42.22;;
52456;SDS011;38369;52.840;7.082;2024-02-28T03:50:10;107.47;;;40.60;;
52456;SDS011;38369;52.840;7.082;2024-02-28T03:52:36;145.73;;;43.65;;
52456;SDS011;38369;52.840;7.082;2024-02-28T03:55:03;118.70;;;39.15;;
52456;SDS011;38369;52.840;7.082;2024-02-28T03:57:29;164.18;;;45.55;;
52456;SDS011;38369;52.840;7.082;2024-02-28T03:59:55;150.82;;;44.85;;
52456;SDS011;38369;52.840;7.082;2024-02-28T04:02:21;209.68;;;53.85;;
52456;SDS011;38369;52.840;7.082;2024-02-28T04:04:47;128.48;;;41.03;;
52456;SDS011;38369;52.840;7.082;2024-02-28T04:07:13;195.65;;;49.88;;
52456;SDS011;38369;52.840;7.082;2024-02-28T04:09:39;136.38;;;44.15;;
52456;SDS011;38369;52.840;7.082;2024-02-28T04:12:05;129.30;;;42.30;;
52456;SDS011;38369;52.840;7.082;2024-02-28T04:14:31;163.73;;;47.13;;
52456;SDS011;38369;52.840;7.082;2024-02-28T04:16:57;118.53;;;41.97;;
52456;SDS011;38369;52.840;7.082;2024-02-28T04:19:23;122.75;;;41.15;;
52456;SDS011;38369;52.840;7.082;2024-02-28T04:21:49;123.07;;;41.95;;
52456;SDS011;38369;52.840;7.082;2024-02-28T04:24:15;139.65;;;42.10;;
52456;SDS011;38369;52.840;7.082;2024-02-28T04:26:41;140.25;;;42.80;;
52456;SDS011;38369;52.840;7.082;2024-02-28T04:29:07;136.30;;;46.00;;
52456;SDS011;38369;52.840;7.082;2024-02-28T04:31:38;126.60;;;43.45;;
52456;SDS011;38369;52.840;7.082;2024-02-28T04:34:05;145.25;;;48.17;;
52456;SDS011;38369;52.840;7.082;2024-02-28T04:36:31;137.00;;;43.20;;
52456;SDS011;38369;52.840;7.082;2024-02-28T04:38:57;144.23;;;44.38;;
52456;SDS011;38369;52.840;7.082;2024-02-28T04:41:23;183.43;;;50.28;;
52456;SDS011;38369;52.840;7.082;2024-02-28T04:43:49;192.50;;;50.10;;
52456;SDS011;38369;52.840;7.082;2024-02-28T04:46:15;180.65;;;50.78;;
52456;SDS011;38369;52.840;7.082;2024-02-28T04:48:41;183.07;;;50.80;;
52456;SDS011;38369;52.840;7.082;2024-02-28T04:51:07;164.25;;;49.08;;
52456;SDS011;38369;52.840;7.082;2024-02-28T04:53:33;131.93;;;43.20;;
52456;SDS011;38369;52.840;7.082;2024-02-28T04:55:59;130.70;;;44.60;;
52456;SDS011;38369;52.840;7.082;2024-02-28T04:58:25;134.15;;;46.30;;
52456;SDS011;38369;52.840;7.082;2024-02-28T05:00:52;121.68;;;41.78;;
52456;SDS011;38369;52.840;7.082;2024-02-28T05:03:18;131.60;;;44.45;;
52456;SDS011;38369;52.840;7.082;2024-02-28T05:05:44;146.25;;;47.83;;
52456;SDS011;38369;52.840;7.082;2024-02-28T05:08:10;137.20;;;44.65;;
52456;SDS011;38369;52.840;7.082;2024-02-28T05:10:38;133.30;;;45.67;;
52456;SDS011;38369;52.840;7.082;2024-02-28T05:13:05;121.20;;;44.25;;
52456;SDS011;38369;52.840;7.082;2024-02-28T05:15:31;140.80;;;44.08;;
52456;SDS011;38369;52.840;7.082;2024-02-28T05:17:57;124.88;;;43.65;;
52456;SDS011;38369;52.840;7.082;2024-02-28T05:20:23;140.75;;;45.40;;
52456;SDS011;38369;52.840;7.082;2024-02-28T05:22:49;120.05;;;43.95;;
52456;SDS011;38369;52.840;7.082;2024-02-28T05:25:15;118.47;;;42.90;;
52456;SDS011;38369;52.840;7.082;2024-02-28T05:27:42;128.30;;;46.53;;
52456;SDS011;38369;52.840;7.082;2024-02-28T05:30:09;133.77;;;44.75;;
52456;SDS011;38369;52.840;7.082;2024-02-28T05:32:35;170.40;;;50.53;;
52456;SDS011;38369;52.840;7.082;2024-02-28T05:35:01;147.50;;;49.75;;
52456;SDS011;38369;52.840;7.082;2024-02-28T05:37:27;155.32;;;48.92;;
52456;SDS011;38369;52.840;7.082;2024-02-28T05:39:53;129.35;;;47.45;;
52456;SDS011;38369;52.840;7.082;2024-02-28T05:42:19;146.38;;;47.92;;
52456;SDS011;38369;52.840;7.082;2024-02-28T05:44:49;156.23;;;51.47;;
52456;SDS011;38369;52.840;7.082;2024-02-28T05:47:15;156.27;;;50.45;;
52456;SDS011;38369;52.840;7.082;2024-02-28T05:49:42;179.68;;;50.22;;
52456;SDS011;38369;52.840;7.082;2024-02-28T05:52:09;219.73;;;55.85;;
52456;SDS011;38369;52.840;7.082;2024-02-28T05:54:36;166.82;;;52.75;;
52456;SDS011;38369;52.840;7.082;2024-02-28T05:57:02;133.85;;;47.65;;
52456;SDS011;38369;52.840;7.082;2024-02-28T05:59:28;142.23;;;47.50;;
52456;SDS011;38369;52.840;7.082;2024-02-28T06:01:54;218.13;;;56.97;;
52456;SDS011;38369;52.840;7.082;2024-02-28T06:04:20;156.85;;;49.08;;
52456;SDS011;38369;52.840;7.082;2024-02-28T06:06:46;135.25;;;46.20;;
52456;SDS011;38369;52.840;7.082;2024-02-28T06:09:14;128.52;;;43.75;;
52456;SDS011;38369;52.840;7.082;2024-02-28T06:11:40;135.43;;;49.60;;
52456;SDS011;38369;52.840;7.082;2024-02-28T06:14:06;127.43;;;44.13;;
52456;SDS011;38369;52.840;7.082;2024-02-28T06:16:32;133.85;;;45.65;;
52456;SDS011;38369;52.840;7.082;2024-02-28T06:18:59;123.22;;;43.13;;
52456;SDS011;38369;52.840;7.082;2024-02-28T06:21:25;134.35;;;45.75;;
52456;SDS011;38369;52.840;7.082;2024-02-28T06:23:51;130.43;;;45.30;;
52456;SDS011;38369;52.840;7.082;2024-02-28T06:26:17;140.75;;;43.90;;
52456;SDS011;38369;52.840;7.082;2024-02-28T06:28:43;143.95;;;48.53;;
52456;SDS011;38369;52.840;7.082;2024-02-28T06:31:15;122.20;;;45.40;;
52456;SDS011;38369;52.840;7.082;2024-02-28T06:33:42;124.03;;;43.97;;
52456;SDS011;38369;52.840;7.082;2024-02-28T06:36:08;122.80;;;43.28;;
52456;SDS011;38369;52.840;7.082;2024-02-28T06:38:34;122.80;;;43.25;;
52456;SDS011;38369;52.840;7.082;2024-02-28T06:41:02;112.88;;;42.90;;
52456;SDS011;38369;52.840;7.082;2024-02-28T06:43:28;137.73;;;46.97;;
52456;SDS011;38369;52.840;7.082;2024-02-28T06:45:54;117.20;;;43.50;;
52456;SDS011;38369;52.840;7.082;2024-02-28T06:48:20;117.45;;;43.80;;
52456;SDS011;38369;52.840;7.082;2024-02-28T06:50:50;116.07;;;45.00;;
52456;SDS011;38369;52.840;7.082;2024-02-28T06:55:43;114.63;;;42.70;;
52456;SDS011;38369;52.840;7.082;2024-02-28T06:58:10;132.77;;;44.05;;
52456;SDS011;38369;52.840;7.082;2024-02-28T07:00:36;123.47;;;43.58;;
52456;SDS011;38369;52.840;7.082;2024-02-28T07:03:02;127.90;;;44.53;;
52456;SDS011;38369;52.840;7.082;2024-02-28T07:05:29;131.82;;;44.03;;
52456;SDS011;38369;52.840;7.082;2024-02-28T07:07:55;116.85;;;40.58;;
52456;SDS011;38369;52.840;7.082;2024-02-28T07:10:24;121.20;;;42.65;;
52456;SDS011;38369;52.840;7.082;2024-02-28T07:12:52;118.05;;;43.83;;
52456;SDS011;38369;52.840;7.082;2024-02-28T07:15:21;114.82;;;43.80;;
52456;SDS011;38369;52.840;7.082;2024-02-28T07:17:47;108.15;;;40.92;;
52456;SDS011;38369;52.840;7.082;2024-02-28T07:20:13;137.48;;;46.92;;
52456;SDS011;38369;52.840;7.082;2024-02-28T07:22:40;104.28;;;40.55;;
52456;SDS011;38369;52.840;7.082;2024-02-28T07:25:07;113.07;;;42.53;;
52456;SDS011;38369;52.840;7.082;2024-02-28T07:27:34;115.57;;;42.53;;
52456;SDS011;38369;52.840;7.082;2024-02-28T07:30:07;105.70;;;40.85;;
52456;SDS011;38369;52.840;7.082;2024-02-28T07:32:33;117.95;;;43.33;;
52456;SDS011;38369;52.840;7.082;2024-02-28T07:35:00;101.40;;;40.55;;
52456;SDS011;38369;52.840;7.082;2024-02-28T07:37:28;107.25;;;40.72;;
52456;SDS011;38369;52.840;7.082;2024-02-28T07:40:06;109.88;;;40.33;;
52456;SDS011;38369;52.840;7.082;2024-02-28T07:43:18;107.60;;;40.38;;
52456;SDS011;38369;52.840;7.082;2024-02-28T07:46:23;110.93;;;42.38;;
52456;SDS011;38369;52.840;7.082;2024-02-28T07:48:49;102.68;;;41.78;;
52456;SDS011;38369;52.840;7.082;2024-02-28T07:51:15;99.93;;;38.58;;
52456;SDS011;38369;52.840;7.082;2024-02-28T07:53:43;108.13;;;40.08;;
52456;SDS011;38369;52.840;7.082;2024-02-28T07:56:15;112.90;;;43.35;;
52456;SDS011;38369;52.840;7.082;2024-02-28T07:58:42;102.18;;;40.35;;
52456;SDS011;38369;52.840;7.082;2024-02-28T08:01:08;97.72;;;38.60;;
52456;SDS011;38369;52.840;7.082;2024-02-28T08:03:34;99.75;;;40.03;;
52456;SDS011;38369;52.840;7.082;2024-02-28T08:06:00;107.50;;;42.88;;
52456;SDS011;38369;52.840;7.082;2024-02-28T08:08:27;104.53;;;40.03;;
52456;SDS011;38369;52.840;7.082;2024-02-28T08:10:53;100.00;;;40.22;;
52456;SDS011;38369;52.840;7.082;2024-02-28T08:13:21;97.60;;;40.03;;
52456;SDS011;38369;52.840;7.082;2024-02-28T08:15:47;104.95;;;41.58;;
52456;SDS011;38369;52.840;7.082;2024-02-28T08:18:20;98.03;;;39.97;;
52456;SDS011;38369;52.840;7.082;2024-02-28T08:20:49;87.85;;;37.58;;
52456;SDS011;38369;52.840;7.082;2024-02-28T08:27:14;93.22;;;35.42;;
52456;SDS011;38369;52.840;7.082;2024-02-28T08:29:39;91.22;;;37.63;;
52456;SDS011;38369;52.840;7.082;2024-02-28T08:32:10;94.22;;;38.47;;
52456;SDS011;38369;52.840;7.082;2024-02-28T08:34:37;88.13;;;38.22;;
52456;SDS011;38369;52.840;7.082;2024-02-28T08:37:03;90.03;;;38.28;;
52456;SDS011;38369;52.840;7.082;2024-02-28T08:39:29;88.55;;;36.83;;
52456;SDS011;38369;52.840;7.082;2024-02-28T08:41:55;82.63;;;35.90;;
52456;SDS011;38369;52.840;7.082;2024-02-28T08:44:33;83.63;;;36.92;;
52456;SDS011;38369;52.840;7.082;2024-02-28T08:50:29;78.53;;;36.25;;
52456;SDS011;38369;52.840;7.082;2024-02-28T08:53:09;84.30;;;36.95;;
52456;SDS011;38369;52.840;7.082;2024-02-28T08:55:41;76.47;;;34.70;;
52456;SDS011;38369;52.840;7.082;2024-02-28T08:58:25;88.57;;;37.30;;
52456;SDS011;38369;52.840;7.082;2024-02-28T09:00:52;82.28;;;36.33;;
52456;SDS011;38369;52.840;7.082;2024-02-28T09:03:19;83.18;;;35.92;;
52456;SDS011;38369;52.840;7.082;2024-02-28T09:05:46;87.93;;;38.15;;
52456;SDS011;38369;52.840;7.082;2024-02-28T09:08:13;81.13;;;35.42;;
52456;SDS011;38369;52.840;7.082;2024-02-28T09:10:39;83.05;;;35.83;;
52456;SDS011;38369;52.840;7.082;2024-02-28T09:13:05;83.05;;;37.25;;
52456;SDS011;38369;52.840;7.082;2024-02-28T09:18:34;80.78;;;39.17;;
52456;SDS011;38369;52.840;7.082;2024-02-28T09:21:01;75.47;;;36.58;;
52456;SDS011;38369;52.840;7.082;2024-02-28T09:23:27;78.70;;;36.63;;
52456;SDS011;38369;52.840;7.082;2024-02-28T09:25:53;75.72;;;36.58;;
52456;SDS011;38369;52.840;7.082;2024-02-28T09:28:20;74.35;;;34.40;;
52456;SDS011;38369;52.840;7.082;2024-02-28T09:30:46;67.97;;;34.70;;
52456;SDS011;38369;52.840;7.082;2024-02-28T09:33:15;70.93;;;34.92;;
52456;SDS011;38369;52.840;7.082;2024-02-28T09:35:44;74.18;;;36.33;;
52456;SDS011;38369;52.840;7.082;2024-02-28T09:38:10;74.70;;;37.90;;
52456;SDS011;38369;52.840;7.082;2024-02-28T09:40:37;71.15;;;34.92;;
52456;SDS011;38369;52.840;7.082;2024-02-28T09:43:04;73.93;;;35.85;;
52456;SDS011;38369;52.840;7.082;2024-02-28T09:45:30;62.53;;;33.17;;
52456;SDS011;38369;52.840;7.082;2024-02-28T09:48:00;70.35;;;34.65;;
52456;SDS011;38369;52.840;7.082;2024-02-28T09:50:28;68.30;;;35.13;;
52456;SDS011;38369;52.840;7.082;2024-02-28T09:52:56;69.68;;;35.63;;
52456;SDS011;38369;52.840;7.082;2024-02-28T09:55:24;71.45;;;34.10;;
52456;SDS011;38369;52.840;7.082;2024-02-28T09:57:50;72.00;;;35.40;;
52456;SDS011;38369;52.840;7.082;2024-02-28T10:00:19;74.68;;;37.08;;
52456;SDS011;38369;52.840;7.082;2024-02-28T10:02:52;66.75;;;34.63;;
52456;SDS011;38369;52.840;7.082;2024-02-28T10:05:22;73.03;;;36.58;;
52456;SDS011;38369;52.840;7.082;2024-02-28T10:07:54;72.97;;;37.50;;
52456;SDS011;38369;52.840;7.082;2024-02-28T10:10:21;72.25;;;35.60;;
52456;SDS011;38369;52.840;7.082;2024-02-28T10:12:48;74.63;;;36.67;;
52456;SDS011;38369;52.840;7.082;2024-02-28T10:15:17;77.07;;;37.40;;
52456;SDS011;38369;52.840;7.082;2024-02-28T10:17:46;77.25;;;38.85;;
52456;SDS011;38369;52.840;7.082;2024-02-28T10:20:12;77.97;;;39.10;;
52456;SDS011;38369;52.840;7.082;2024-02-28T10:22:38;78.70;;;40.13;;
52456;SDS011;38369;52.840;7.082;2024-02-28T10:25:05;77.40;;;39.42;;
52456;SDS011;38369;52.840;7.082;2024-02-28T10:27:31;82.10;;;38.78;;
52456;SDS011;38369;52.840;7.082;2024-02-28T10:29:58;70.60;;;37.10;;
52456;SDS011;38369;52.840;7.082;2024-02-28T10:32:24;78.82;;;38.85;;
52456;SDS011;38369;52.840;7.082;2024-02-28T10:34:50;77.57;;;38.38;;
52456;SDS011;38369;52.840;7.082;2024-02-28T10:37:16;72.85;;;37.83;;
52456;SDS011;38369;52.840;7.082;2024-02-28T10:39:44;83.38;;;39.97;;
52456;SDS011;38369;52.840;7.082;2024-02-28T10:42:10;80.97;;;40.67;;
52456;SDS011;38369;52.840;7.082;2024-02-28T10:44:37;80.35;;;37.97;;
52456;SDS011;38369;52.840;7.082;2024-02-28T10:47:05;74.30;;;39.80;;
52456;SDS011;38369;52.840;7.082;2024-02-28T10:49:34;78.82;;;40.60;;
52456;SDS011;38369;52.840;7.082;2024-02-28T10:52:00;85.13;;;43.08;;
52456;SDS011;38369;52.840;7.082;2024-02-28T10:54:29;84.00;;;42.08;;
52456;SDS011;38369;52.840;7.082;2024-02-28T10:56:57;77.47;;;41.20;;
52456;SDS011;38369;52.840;7.082;2024-02-28T10:59:25;79.97;;;41.00;;
52456;SDS011;38369;52.840;7.082;2024-02-28T11:01:51;80.97;;;41.67;;
52456;SDS011;38369;52.840;7.082;2024-02-28T11:04:17;77.47;;;40.28;;
52456;SDS011;38369;52.840;7.082;2024-02-28T11:06:50;77.78;;;40.85;;
52456;SDS011;38369;52.840;7.082;2024-02-28T11:09:22;79.60;;;41.50;;
52456;SDS011;38369;52.840;7.082;2024-02-28T11:11:49;77.25;;;41.15;;
52456;SDS011;38369;52.840;7.082;2024-02-28T11:14:16;73.82;;;40.92;;
52456;SDS011;38369;52.840;7.082;2024-02-28T11:16:42;80.18;;;42.65;;
52456;SDS011;38369;52.840;7.082;2024-02-28T11:19:18;73.80;;;43.45;;
52456;SDS011;38369;52.840;7.082;2024-02-28T11:21:54;74.80;;;41.67;;
52456;SDS011;38369;52.840;7.082;2024-02-28T11:24:24;76.55;;;43.00;;
52456;SDS011;38369;52.840;7.082;2024-02-28T11:26:52;72.85;;;42.13;;
52456;SDS011;38369;52.840;7.082;2024-02-28T11:29:25;70.57;;;40.40;;
52456;SDS011;38369;52.840;7.082;2024-02-28T11:31:52;71.43;;;39.22;;
52456;SDS011;38369;52.840;7.082;2024-02-28T11:34:19;74.07;;;40.90;;
52456;SDS011;38369;52.840;7.082;2024-02-28T11:36:49;72.28;;;42.17;;
52456;SDS011;38369;52.840;7.082;2024-02-28T11:39:15;69.28;;;40.75;;
52456;SDS011;38369;52.840;7.082;2024-02-28T11:41:42;67.50;;;41.88;;
52456;SDS011;38369;52.840;7.082;2024-02-28T11:44:11;66.78;;;40.92;;
52456;SDS011;38369;52.840;7.082;2024-02-28T11:46:38;65.57;;;41.10;;
52456;SDS011;38369;52.840;7.082;2024-02-28T11:49:04;69.18;;;42.45;;
52456;SDS011;38369;52.840;7.082;2024-02-28T11:51:30;71.82;;;41.90;;
52456;SDS011;38369;52.840;7.082;2024-02-28T11:53:57;65.45;;;40.35;;
52456;SDS011;38369;52.840;7.082;2024-02-28T11:56:23;68.53;;;41.08;;
52456;SDS011;38369;52.840;7.082;2024-02-28T11:58:53;66.15;;;40.70;;
52456;SDS011;38369;52.840;7.082;2024-02-28T12:03:50;61.58;;;39.80;;
52456;SDS011;38369;52.840;7.082;2024-02-28T12:06:18;61.47;;;39.83;;
52456;SDS011;38369;52.840;7.082;2024-02-28T12:08:44;64.60;;;41.47;;
52456;SDS011;38369;52.840;7.082;2024-02-28T12:11:10;62.95;;;40.33;;
52456;SDS011;38369;52.840;7.082;2024-02-28T12:13:36;58.58;;;40.10;;
52456;SDS011;38369;52.840;7.082;2024-02-28T12:16:03;56.15;;;39.20;;
52456;SDS011;38369;52.840;7.082;2024-02-28T12:18:32;57.78;;;37.83;;
52456;SDS011;38369;52.840;7.082;2024-02-28T12:20:58;61.30;;;37.58;;
52456;SDS011;38369;52.840;7.082;2024-02-28T12:23:24;65.22;;;40.22;;
52456;SDS011;38369;52.840;7.082;2024-02-28T12:25:50;60.78;;;39.92;;
52456;SDS011;38369;52.840;7.082;2024-02-28T12:28:16;66.25;;;41.05;;
52456;SDS011;38369;52.840;7.082;2024-02-28T12:30:42;57.03;;;39.22;;
52456;SDS011;38369;52.840;7.082;2024-02-28T12:33:10;59.00;;;39.08;;
52456;SDS011;38369;52.840;7.082;2024-02-28T12:35:39;57.97;;;39.23;;
52456;SDS011;38369;52.840;7.082;2024-02-28T12:38:10;58.45;;;38.30;;
52456;SDS011;38369;52.840;7.082;2024-02-28T12:40:36;62.53;;;40.13;;
52456;SDS011;38369;52.840;7.082;2024-02-28T12:43:03;59.38;;;37.30;;
52456;SDS011;38369;52.840;7.082;2024-02-28T12:45:30;59.35;;;40.08;;
52456;SDS011;38369;52.840;7.082;2024-02-28T12:47:56;65.57;;;40.53;;
52456;SDS011;38369;52.840;7.082;2024-02-28T12:50:22;60.17;;;38.28;;
52456;SDS011;38369;52.840;7.082;2024-02-28T12:52:49;58.78;;;39.85;;
52456;SDS011;38369;52.840;7.082;2024-02-28T12:55:18;61.88;;;39.80;;
52456;SDS011;38369;52.840;7.082;2024-02-28T12:57:45;58.10;;;38.03;;
52456;SDS011;38369;52.840;7.082;2024-02-28T13:00:11;67.57;;;40.60;;
52456;SDS011;38369;52.840;7.082;2024-02-28T13:02:40;56.83;;;39.13;;
52456;SDS011;38369;52.840;7.082;2024-02-28T13:05:06;60.58;;;37.95;;
52456;SDS011;38369;52.840;7.082;2024-02-28T13:07:33;59.17;;;38.33;;
52456;SDS011;38369;52.840;7.082;2024-02-28T13:10:01;55.40;;;35.50;;
52456;SDS011;38369;52.840;7.082;2024-02-28T13:12:30;56.67;;;37.63;;
52456;SDS011;38369;52.840;7.082;2024-02-28T13:14:57;56.17;;;37.20;;
52456;SDS011;38369;52.840;7.082;2024-02-28T13:17:23;59.33;;;37.88;;
52456;SDS011;38369;52.840;7.082;2024-02-28T13:19:49;55.20;;;35.38;;
52456;SDS011;38369;52.840;7.082;2024-02-28T13:22:15;58.88;;;38.63;;
52456;SDS011;38369;52.840;7.082;2024-02-28T13:24:41;53.25;;;36.78;;
52456;SDS011;38369;52.840;7.082;2024-02-28T13:27:08;60.20;;;37.03;;
52456;SDS011;38369;52.840;7.082;2024-02-28T13:29:34;56.15;;;37.17;;
52456;SDS011;38369;52.840;7.082;2024-02-28T13:32:00;60.30;;;36.58;;
52456;SDS011;38369;52.840;7.082;2024-02-28T13:34:28;56.92;;;35.88;;
52456;SDS011;38369;52.840;7.082;2024-02-28T13:36:55;51.95;;;35.80;;
52456;SDS011;38369;52.840;7.082;2024-02-28T13:39:21;54.88;;;35.92;;
52456;SDS011;38369;52.840;7.082;2024-02-28T13:41:48;62.75;;;36.40;;
52456;SDS011;38369;52.840;7.082;2024-02-28T13:44:16;58.80;;;37.25;;
52456;SDS011;38369;52.840;7.082;2024-02-28T13:46:44;54.10;;;33.95;;
52456;SDS011;38369;52.840;7.082;2024-02-28T13:49:10;58.13;;;36.80;;
52456;SDS011;38369;52.840;7.082;2024-02-28T13:51:36;54.47;;;35.95;;
52456;SDS011;38369;52.840;7.082;2024-02-28T13:54:02;54.38;;;36.28;;
52456;SDS011;38369;52.840;7.082;2024-02-28T13:56:28;55.47;;;35.47;;
52456;SDS011;38369;52.840;7.082;2024-02-28T13:58:56;51.92;;;34.25;;
52456;SDS011;38369;52.840;7.082;2024-02-28T14:01:22;56.05;;;36.90;;
52456;SDS011;38369;52.840;7.082;2024-02-28T14:03:48;57.70;;;35.65;;
52456;SDS011;38369;52.840;7.082;2024-02-28T14:06:14;53.17;;;34.22;;
52456;SDS011;38369;52.840;7.082;2024-02-28T14:08:40;53.80;;;33.50;;
52456;SDS011;38369;52.840;7.082;2024-02-28T14:11:06;54.63;;;35.42;;
52456;SDS011;38369;52.840;7.082;2024-02-28T14:13:34;53.00;;;33.83;;
52456;SDS011;38369;52.840;7.082;2024-02-28T14:16:00;54.13;;;34.08;;
52456;SDS011;38369;52.840;7.082;2024-02-28T14:18:27;56.50;;;34.42;;
52456;SDS011;38369;52.840;7.082;2024-02-28T14:20:53;57.88;;;33.85;;
52456;SDS011;38369;52.840;7.082;2024-02-28T14:23:21;52.53;;;32.95;;
52456;SDS011;38369;52.840;7.082;2024-02-28T14:25:47;55.42;;;35.85;;
52456;SDS011;38369;52.840;7.082;2024-02-28T14:28:14;56.03;;;34.70;;